createdAt,value
2022-11-08T00:01:34.640Z,3.10
2022-11-08T00:04:21.940Z,3.10
2022-11-08T00:07:26.804Z,2.92
2022-11-08T00:10:33.466Z,2.53
2022-11-08T00:13:38.430Z,3.10
2022-11-08T00:16:25.127Z,2.80
2022-11-08T00:19:11.607Z,3.47
2022-11-08T00:22:00.267Z,2.60
2022-11-08T00:24:48.759Z,2.90
2022-11-08T00:27:38.073Z,3.25
2022-11-08T00:30:25.811Z,2.90
2022-11-08T00:33:13.717Z,3.38
2022-11-08T00:36:02.100Z,2.90
2022-11-08T00:38:50.016Z,2.97
2022-11-08T00:41:37.782Z,3.00
2022-11-08T00:44:27.771Z,2.85
2022-11-08T00:47:15.965Z,2.60
2022-11-08T00:50:04.004Z,2.95
2022-11-08T00:52:51.831Z,2.92
2022-11-08T00:55:40.035Z,3.00
2022-11-08T00:58:28.854Z,3.15
2022-11-08T01:01:21.086Z,2.90
2022-11-08T01:04:13.635Z,3.15
2022-11-08T01:07:01.873Z,2.60
2022-11-08T01:09:49.853Z,2.92
2022-11-08T01:12:38.030Z,2.17
2022-11-08T01:15:26.361Z,2.50
2022-11-08T01:18:18.272Z,2.20
2022-11-08T01:21:07.417Z,1.85
2022-11-08T01:23:58.031Z,2.30
2022-11-08T01:26:45.764Z,2.28
2022-11-08T01:29:34.716Z,2.13
2022-11-08T01:32:22.555Z,2.20
2022-11-08T01:35:12.429Z,2.25
2022-11-08T01:38:02.318Z,2.28
2022-11-08T01:40:51.097Z,2.17
2022-11-08T01:43:42.402Z,2.10
2022-11-08T01:46:39.350Z,2.08
2022-11-08T01:49:32.936Z,2.30
2022-11-08T01:52:27.950Z,2.50
2022-11-08T01:55:21.550Z,3.17
2022-11-08T02:01:01.123Z,2.30
2022-11-08T02:03:49.572Z,2.50
2022-11-08T02:06:40.871Z,2.65
2022-11-08T02:09:32.795Z,2.30
2022-11-08T02:12:25.228Z,2.38
2022-11-08T02:15:14.106Z,2.45
2022-11-08T02:18:02.576Z,2.10
2022-11-08T02:21:00.696Z,2.50
2022-11-08T02:23:51.258Z,2.50
2022-11-08T02:26:40.147Z,2.05
2022-11-08T02:29:31.979Z,2.30
2022-11-08T02:32:20.319Z,2.20
2022-11-08T02:35:11.903Z,2.47
2022-11-08T02:37:59.897Z,2.60
2022-11-08T02:40:50.315Z,2.70
2022-11-08T02:43:38.673Z,2.63
2022-11-08T02:46:26.958Z,2.60
2022-11-08T02:49:14.820Z,2.20
2022-11-08T02:52:03.021Z,2.05
2022-11-08T02:54:51.837Z,2.15
2022-11-08T02:57:41.362Z,1.92
2022-11-08T03:00:29.663Z,1.88
2022-11-08T03:03:17.622Z,1.77
2022-11-08T03:06:05.607Z,1.77
2022-11-08T03:08:53.991Z,1.80
2022-11-08T03:11:41.543Z,1.88
2022-11-08T03:14:31.041Z,1.90
2022-11-08T03:17:18.703Z,1.95
2022-11-08T03:20:07.373Z,1.73
2022-11-08T03:23:00.196Z,2.00
2022-11-08T03:25:51.597Z,1.58
2022-11-08T03:28:39.075Z,1.88
2022-11-08T03:31:28.728Z,1.73
2022-11-08T03:34:16.830Z,1.33
2022-11-08T03:37:07.395Z,1.80
2022-11-08T03:39:56.049Z,1.73
2022-11-08T03:42:44.337Z,1.70
2022-11-08T03:45:32.578Z,1.77
2022-11-08T03:48:23.688Z,1.65
2022-11-08T03:51:11.973Z,2.10
2022-11-08T03:54:00.263Z,2.03
2022-11-08T03:56:48.707Z,1.95
2022-11-08T03:59:36.739Z,1.98
2022-11-08T04:02:24.944Z,1.73
2022-11-08T04:05:15.941Z,2.08
2022-11-08T04:08:05.969Z,2.00
2022-11-08T04:10:56.930Z,2.15
2022-11-08T04:13:59.136Z,2.42
2022-11-08T04:16:45.873Z,2.05
2022-11-08T04:19:51.165Z,2.15
2022-11-08T04:22:39.587Z,2.10
2022-11-08T04:25:28.939Z,2.53
2022-11-08T04:28:18.216Z,1.80
2022-11-08T04:31:10.055Z,1.90
2022-11-08T04:33:57.717Z,2.00
2022-11-08T04:36:46.224Z,1.80
2022-11-08T04:39:35.963Z,1.88
2022-11-08T04:42:24.373Z,2.55
2022-11-08T04:45:12.481Z,1.92
2022-11-08T04:48:00.490Z,1.95
2022-11-08T04:50:48.400Z,2.13
2022-11-08T04:53:36.851Z,1.90
2022-11-08T04:56:28.421Z,1.92
2022-11-08T04:59:16.691Z,2.08
2022-11-08T05:02:04.940Z,2.20
2022-11-08T05:04:53.451Z,2.45
2022-11-08T05:07:41.636Z,2.03
2022-11-08T05:10:29.753Z,2.13
2022-11-08T05:13:19.120Z,2.78
2022-11-08T05:16:09.934Z,2.47
2022-11-08T05:18:58.102Z,2.40
2022-11-08T05:21:59.611Z,2.08
2022-11-08T05:24:46.474Z,2.47
2022-11-08T05:27:34.075Z,2.50
2022-11-08T05:30:22.429Z,2.13
2022-11-08T05:33:10.676Z,2.22
2022-11-08T05:36:05.877Z,2.45
2022-11-08T05:38:54.901Z,2.83
2022-11-08T05:41:43.723Z,2.20
2022-11-08T05:44:32.356Z,2.58
2022-11-08T05:47:24.875Z,2.15
2022-11-08T05:50:18.253Z,2.20
2022-11-08T05:53:07.639Z,2.03
2022-11-08T05:56:00.452Z,2.28
2022-11-08T05:58:48.372Z,2.27
2022-11-08T06:01:36.985Z,2.20
2022-11-08T06:04:26.358Z,2.05
2022-11-08T06:07:14.529Z,2.05
2022-11-08T06:10:03.176Z,2.00
2022-11-08T06:12:51.811Z,1.95
2022-11-08T06:16:02.560Z,2.20
2022-11-08T06:18:50.877Z,2.28
2022-11-08T06:21:40.870Z,2.50
2022-11-08T06:24:29.330Z,2.08
2022-11-08T06:27:17.487Z,2.22
2022-11-08T06:30:06.141Z,1.92
2022-11-08T06:32:54.239Z,1.83
2022-11-08T06:35:42.848Z,2.20
2022-11-08T06:38:32.715Z,2.25
2022-11-08T06:41:24.644Z,2.30
2022-11-08T06:44:12.738Z,1.90
2022-11-08T06:47:00.591Z,2.50
2022-11-08T06:49:48.437Z,2.60
2022-11-08T06:52:36.641Z,2.30
2022-11-08T06:55:26.108Z,2.40
2022-11-08T06:58:14.281Z,2.83
2022-11-08T07:01:06.157Z,2.45
2022-11-08T07:03:54.152Z,2.75
2022-11-08T07:06:42.028Z,2.70
2022-11-08T07:09:30.470Z,2.47
2022-11-08T07:12:20.025Z,3.25
2022-11-08T07:15:08.821Z,2.63
2022-11-08T07:18:01.040Z,2.67
2022-11-08T07:20:49.275Z,2.88
2022-11-08T07:23:37.543Z,3.08
2022-11-08T07:26:25.339Z,3.00
2022-11-08T07:29:16.235Z,3.17
2022-11-08T07:32:04.625Z,2.97
2022-11-08T07:34:52.871Z,3.25
2022-11-08T07:37:41.305Z,2.70
2022-11-08T07:40:29.244Z,2.53
2022-11-08T07:43:17.403Z,2.80
2022-11-08T07:46:09.644Z,2.40
2022-11-08T07:48:57.741Z,2.80
2022-11-08T07:51:45.982Z,2.83
2022-11-08T07:54:33.854Z,2.40
2022-11-08T07:57:21.885Z,2.45
2022-11-08T08:00:11.125Z,2.80
2022-11-08T08:03:03.087Z,2.65
2022-11-08T08:06:00.528Z,2.78
2022-11-08T08:08:49.960Z,2.25
2022-11-08T08:11:39.893Z,2.45
2022-11-08T08:14:27.489Z,2.90
2022-11-08T08:17:15.558Z,2.60
2022-11-08T08:20:05.383Z,2.75
2022-11-08T08:22:53.873Z,3.00
2022-11-08T08:25:41.616Z,2.90
2022-11-08T08:28:29.484Z,2.47
2022-11-08T08:31:17.586Z,2.50
2022-11-08T08:34:05.998Z,2.35
2022-11-08T08:36:55.549Z,2.25
2022-11-08T08:39:43.137Z,2.83
2022-11-08T08:42:31.005Z,2.50
2022-11-08T08:45:18.767Z,2.38
2022-11-08T08:48:06.126Z,2.03
2022-11-08T08:50:53.607Z,2.40
2022-11-08T08:53:43.186Z,2.15
2022-11-08T08:56:30.811Z,1.80
2022-11-08T09:02:25.671Z,1.98
2022-11-08T09:05:14.931Z,2.30
2022-11-08T09:08:03.938Z,2.03
2022-11-08T09:10:56.689Z,2.00
2022-11-08T09:13:44.493Z,2.70
2022-11-08T09:16:32.652Z,1.98
2022-11-08T09:19:20.575Z,2.70
2022-11-08T09:22:08.921Z,2.38
2022-11-08T09:24:56.783Z,2.00
2022-11-08T09:27:46.369Z,2.17
2022-11-08T09:30:34.180Z,1.95
2022-11-08T09:33:21.765Z,1.90
2022-11-08T09:36:13.958Z,1.90
2022-11-08T09:39:01.235Z,1.80
2022-11-08T09:42:06.213Z,2.63
2022-11-08T09:45:09.246Z,1.90
2022-11-08T09:48:04.821Z,1.73
2022-11-08T09:50:55.779Z,2.20
2022-11-08T09:53:51.267Z,1.67
2022-11-08T09:56:40.742Z,1.90
2022-11-08T09:59:37.107Z,2.03
2022-11-08T10:02:27.778Z,2.30
2022-11-08T10:05:18.714Z,2.10
2022-11-08T10:08:12.936Z,1.50
2022-11-08T10:11:16.833Z,1.67
2022-11-08T10:17:16.776Z,1.52
2022-11-08T10:20:17.654Z,1.50
2022-11-08T10:23:19.597Z,1.90
2022-11-08T10:26:13.666Z,2.25
2022-11-08T10:29:09.580Z,1.80
2022-11-08T10:32:03.510Z,1.48
2022-11-08T10:34:57.800Z,1.80
2022-11-08T10:37:49.167Z,1.98
2022-11-08T10:40:42.708Z,1.65
2022-11-08T10:43:36.858Z,1.50
2022-11-08T10:46:41.661Z,1.55
2022-11-08T10:49:32.692Z,1.80
2022-11-08T10:52:24.711Z,1.73
2022-11-08T10:55:31.373Z,1.70
2022-11-08T10:58:37.685Z,1.60
2022-11-08T11:01:27.213Z,1.67
2022-11-08T11:04:29.872Z,1.48
2022-11-08T11:07:35.027Z,1.48
2022-11-08T11:10:28.324Z,1.63
2022-11-08T11:13:21.821Z,1.73
2022-11-08T11:16:16.075Z,2.03
2022-11-08T11:19:05.898Z,1.85
2022-11-08T11:21:58.791Z,2.10
2022-11-08T11:24:51.799Z,2.22
2022-11-08T11:27:43.045Z,1.95
2022-11-08T11:30:34.466Z,2.70
2022-11-08T11:33:25.482Z,2.08
2022-11-08T11:36:17.244Z,2.50
2022-11-08T11:39:10.047Z,2.28
2022-11-08T11:42:23.984Z,2.28
2022-11-08T11:45:20.467Z,3.25
2022-11-08T11:48:18.101Z,2.40
2022-11-08T11:51:06.050Z,2.17
2022-11-08T11:53:53.924Z,1.50
2022-11-08T11:56:49.924Z,1.67
2022-11-08T11:59:53.363Z,1.55
2022-11-08T12:03:07.682Z,1.92
2022-11-08T12:06:01.394Z,1.90
2022-11-08T12:08:59.927Z,2.08
2022-11-08T12:11:59.816Z,1.77
2022-11-08T12:14:58.730Z,2.42
2022-11-08T12:18:25.781Z,2.30
2022-11-08T12:21:22.625Z,2.17
2022-11-08T12:24:23.438Z,1.80
2022-11-08T12:27:26.199Z,2.20
2022-11-08T12:30:19.651Z,1.85
2022-11-08T12:33:23.490Z,1.92
2022-11-08T12:36:23.259Z,2.28
2022-11-08T12:39:23.506Z,2.28
2022-11-08T12:42:37.621Z,2.03
2022-11-08T12:45:39.869Z,1.98
2022-11-08T12:48:48.920Z,2.13
2022-11-08T12:51:50.121Z,2.33
2022-11-08T12:54:42.370Z,1.98
2022-11-08T12:57:31.602Z,1.65
2022-11-08T13:00:21.305Z,1.92
2022-11-08T13:03:27.546Z,1.90
2022-11-08T13:06:22.233Z,1.88
2022-11-08T13:09:17.308Z,2.17
2022-11-08T13:12:18.830Z,2.20
2022-11-08T13:15:16.184Z,2.15
2022-11-08T13:18:25.420Z,2.95
2022-11-08T13:21:31.581Z,2.45
2022-11-08T13:24:44.245Z,2.58
2022-11-08T13:27:36.621Z,2.50
2022-11-08T13:30:39.938Z,2.92
2022-11-08T13:33:32.159Z,2.30
2022-11-08T13:36:31.451Z,1.90
2022-11-08T13:39:34.134Z,2.40
2022-11-08T13:42:40.193Z,2.30
2022-11-08T13:45:32.796Z,1.90
2022-11-08T13:48:37.291Z,2.08
2022-11-08T13:51:30.645Z,2.20
2022-11-08T13:54:47.924Z,1.77
2022-11-08T13:57:54.368Z,1.48
2022-11-08T14:00:48.089Z,1.58
2022-11-08T14:03:58.699Z,1.77
2022-11-08T14:06:46.592Z,1.55
2022-11-08T14:09:45.840Z,1.63
2022-11-08T14:12:39.509Z,1.48
2022-11-08T14:15:32.880Z,1.80
2022-11-08T14:18:26.736Z,2.80
2022-11-08T14:21:19.986Z,2.20
2022-11-08T14:24:16.782Z,2.08
2022-11-08T14:27:05.338Z,2.17
2022-11-08T14:30:01.824Z,2.10
2022-11-08T14:32:50.656Z,1.88
2022-11-08T14:35:41.872Z,2.30
2022-11-08T14:38:31.108Z,2.50
2022-11-08T14:41:28.733Z,2.38
2022-11-08T14:44:19.256Z,2.30
2022-11-08T14:47:26.697Z,1.80
2022-11-08T14:50:18.876Z,1.95
2022-11-08T14:53:27.412Z,2.03
2022-11-08T14:56:19.870Z,2.00
2022-11-08T14:59:08.612Z,2.00
2022-11-08T15:01:58.313Z,3.35
2022-11-08T15:04:46.453Z,3.25
2022-11-08T15:07:35.432Z,2.55
2022-11-08T15:10:25.524Z,2.90
2022-11-08T15:13:13.607Z,3.22
2022-11-08T15:16:06.538Z,3.00
2022-11-08T15:18:55.257Z,2.78
2022-11-08T15:21:49.698Z,2.80
2022-11-08T15:24:40.401Z,3.13
2022-11-08T15:27:29.896Z,4.07
2022-11-08T15:30:20.110Z,3.25
2022-11-08T15:33:08.039Z,3.05
2022-11-08T15:35:56.290Z,3.20
2022-11-08T15:38:49.324Z,3.22
2022-11-08T15:41:40.757Z,3.47
2022-11-08T15:44:30.821Z,3.10
2022-11-08T15:47:37.179Z,3.30
2022-11-08T15:50:29.259Z,3.05
2022-11-08T15:53:16.816Z,3.20
2022-11-08T15:56:07.182Z,3.88
2022-11-08T15:58:54.374Z,3.70
2022-11-08T16:01:49.874Z,3.83
2022-11-08T16:04:38.655Z,3.22
2022-11-08T16:07:26.767Z,3.65
2022-11-08T16:10:15.971Z,3.75
2022-11-08T16:13:06.132Z,4.45
2022-11-08T16:15:54.059Z,3.85
2022-11-08T16:18:44.355Z,3.97
2022-11-08T16:21:32.331Z,4.47
2022-11-08T16:24:20.585Z,3.92
2022-11-08T16:27:08.628Z,4.03
2022-11-08T16:29:56.769Z,4.05
2022-11-08T16:32:44.762Z,4.20
2022-11-08T16:35:33.970Z,4.03
2022-11-08T16:38:27.871Z,4.00
2022-11-08T16:41:15.691Z,4.30
2022-11-08T16:44:03.404Z,4.57
2022-11-08T16:46:55.583Z,4.35
2022-11-08T16:49:47.541Z,4.55
2022-11-08T16:52:39.991Z,4.28
2022-11-08T16:55:30.182Z,4.75
2022-11-08T16:58:18.045Z,4.30
2022-11-08T17:01:10.458Z,4.47
2022-11-08T17:03:58.504Z,4.75
2022-11-08T17:06:45.820Z,5.97
2022-11-08T17:09:34.670Z,5.30
2022-11-08T17:12:22.519Z,5.72
2022-11-08T17:15:14.684Z,6.43
2022-11-08T17:18:03.578Z,5.10
2022-11-08T17:20:52.058Z,5.53
2022-11-08T17:23:39.827Z,5.43
2022-11-08T17:26:28.851Z,6.10
2022-11-08T17:29:16.106Z,6.20
2022-11-08T17:32:03.415Z,6.43
2022-11-08T17:34:51.383Z,7.13
2022-11-08T17:37:40.210Z,5.50
2022-11-08T17:40:28.730Z,4.35
2022-11-08T17:43:20.404Z,4.07
2022-11-08T17:46:10.973Z,4.72
2022-11-08T17:48:58.894Z,4.43
2022-11-08T17:51:46.634Z,4.43
2022-11-08T17:54:34.249Z,4.13
2022-11-08T17:57:22.267Z,4.07
2022-11-08T18:00:12.227Z,3.92
2022-11-08T18:03:01.178Z,3.88
2022-11-08T18:05:54.880Z,3.67
2022-11-08T18:08:42.133Z,3.58
2022-11-08T18:11:29.301Z,3.90
2022-11-08T18:14:16.938Z,3.70
2022-11-08T18:17:05.982Z,4.25
2022-11-08T18:19:53.190Z,3.88
2022-11-08T18:22:40.560Z,3.97
2022-11-08T18:25:28.314Z,3.95
2022-11-08T18:28:15.770Z,5.00
2022-11-08T18:31:08.192Z,5.82
2022-11-08T18:33:58.449Z,4.53
2022-11-08T18:36:48.410Z,4.00
2022-11-08T18:39:35.885Z,4.22
2022-11-08T18:42:23.603Z,4.38
2022-11-08T18:45:11.552Z,4.65
2022-11-08T18:47:59.161Z,4.95
2022-11-08T18:50:51.477Z,4.35
2022-11-08T18:53:39.863Z,4.93
2022-11-08T18:56:26.976Z,4.95
2022-11-08T18:59:14.909Z,4.80
2022-11-08T19:02:03.678Z,4.57
2022-11-08T19:04:51.560Z,5.28
2022-11-08T19:07:40.442Z,4.68
2022-11-08T19:10:28.131Z,4.43
2022-11-08T19:13:15.882Z,4.45
2022-11-08T19:16:05.144Z,4.78
2022-11-08T19:18:52.442Z,4.28
2022-11-08T19:21:43.068Z,4.97
2022-11-08T19:24:31.870Z,5.15
2022-11-08T19:27:20.664Z,4.80
2022-11-08T19:30:08.842Z,4.80
2022-11-08T19:32:56.392Z,5.13
2022-11-08T19:35:43.644Z,5.95
2022-11-08T19:38:32.743Z,4.75
2022-11-08T19:41:24.328Z,4.72
2022-11-08T19:44:11.879Z,4.90
2022-11-08T19:46:59.167Z,5.22
2022-11-08T19:49:46.993Z,5.10
2022-11-08T19:52:34.961Z,4.70
2022-11-08T19:55:22.489Z,4.80
2022-11-08T19:58:11.215Z,4.78
2022-11-08T20:00:58.866Z,4.82
2022-11-08T20:03:46.914Z,4.47
2022-11-08T20:06:34.598Z,4.82
2022-11-08T20:09:27.349Z,5.15
2022-11-08T20:12:17.871Z,4.95
2022-11-08T20:15:07.350Z,4.85
2022-11-08T20:17:54.603Z,5.13
2022-11-08T20:20:43.878Z,5.38
2022-11-08T20:23:31.168Z,4.53
2022-11-08T20:26:21.226Z,4.80
2022-11-08T20:29:09.002Z,4.50
2022-11-08T20:31:57.694Z,4.70
2022-11-08T20:34:46.077Z,4.80
2022-11-08T20:37:34.023Z,5.70
2022-11-08T20:40:21.152Z,5.00
2022-11-08T20:43:09.239Z,4.78
2022-11-08T20:46:05.216Z,5.38
2022-11-08T20:49:00.607Z,4.57
2022-11-08T20:51:48.840Z,4.93
2022-11-08T20:54:39.918Z,4.15
2022-11-08T20:57:30.216Z,4.20
2022-11-08T21:00:32.838Z,4.13
2022-11-08T21:03:27.251Z,3.97
2022-11-08T21:06:17.395Z,4.22
2022-11-08T21:09:32.755Z,4.32
2022-11-08T21:12:12.787Z,4.07
2022-11-08T21:15:00.063Z,3.95
2022-11-08T21:17:47.789Z,4.55
2022-11-08T21:20:35.198Z,3.80
2022-11-08T21:23:24.068Z,4.40
2022-11-08T21:26:12.268Z,4.30
2022-11-08T21:28:59.573Z,4.00
2022-11-08T21:31:46.671Z,4.05
2022-11-08T21:34:34.317Z,4.38
2022-11-08T21:37:21.478Z,4.55
2022-11-08T21:40:10.625Z,3.90
2022-11-08T21:42:57.741Z,3.85
2022-11-08T21:45:45.078Z,3.78
2022-11-08T21:48:32.588Z,4.50
2022-11-08T21:51:20.010Z,4.05
2022-11-08T21:54:07.981Z,4.13
2022-11-08T21:56:57.079Z,3.85
2022-11-08T21:59:44.184Z,3.85
2022-11-08T22:02:31.563Z,4.20
2022-11-08T22:05:19.110Z,4.40
2022-11-08T22:08:06.753Z,5.30
2022-11-08T22:10:53.995Z,4.95
2022-11-08T22:13:43.445Z,5.63
2022-11-08T22:16:31.083Z,5.13
2022-11-08T22:19:18.531Z,5.38
2022-11-08T22:22:06.095Z,4.60
2022-11-08T22:24:53.308Z,5.65
2022-11-08T22:27:40.543Z,4.13
2022-11-08T22:30:29.350Z,4.65
2022-11-08T22:33:16.406Z,4.85
2022-11-08T22:36:03.995Z,4.97
2022-11-08T22:38:51.318Z,4.90
2022-11-08T22:41:38.597Z,4.75
2022-11-08T22:44:25.646Z,4.78
2022-11-08T22:47:14.614Z,4.70
2022-11-08T22:50:02.316Z,4.63
2022-11-08T22:52:49.947Z,4.47
2022-11-08T22:55:37.489Z,4.43
2022-11-08T22:58:24.760Z,4.50
2022-11-08T23:01:14.030Z,4.38
2022-11-08T23:04:02.830Z,4.20
2022-11-08T23:06:50.039Z,4.53
2022-11-08T23:09:37.381Z,4.85
2022-11-08T23:12:38.381Z,4.00
2022-11-08T23:15:33.529Z,4.22
2022-11-08T23:18:19.671Z,3.70
2022-11-08T23:21:25.219Z,4.57
2022-11-08T23:24:20.012Z,3.92
2022-11-08T23:27:25.458Z,3.78
2022-11-08T23:30:33.832Z,4.03
2022-11-08T23:33:20.562Z,3.75
2022-11-08T23:36:11.692Z,3.88
2022-11-08T23:38:58.372Z,3.67
2022-11-08T23:42:00.256Z,3.75
2022-11-08T23:44:47.662Z,3.83
2022-11-08T23:47:33.547Z,3.33
2022-11-08T23:50:20.018Z,3.28
2022-11-08T23:53:10.725Z,3.53
2022-11-08T23:55:58.588Z,3.17
2022-11-08T23:58:45.897Z,3.13
